Accueil
METAR-TAF:

METAR-TAF

Aéroports :

Station RAF de Northolt

Northolt, Angleterre

latitude: 51-33N, longitude: 000-25W, altitude: 38 m

Observation

Le bulletin a été fait il y a 57 minutes, à 02:50 UTC
Vent 3 kt de est/nord-est
Température 13°C
Humidité 88%
Pression 1014 hPa
Visibilité 10 km ou plus

METAR: EGWU 020250Z AUTO 07003KT 9999 OVC080/// 13/11 Q1014

Heure: 04:47 (03:47 UTC)

Prévision

Le bulletin a été fait il y a 8 heures et 15 minutes, à 19:32 UTC
Prévision valable du 01 à 21 UTC au 02 à 15 UTC
Vent 8 kt de est
Visibilité 10 km ou plus
Quelques nuages à une hauteur de 2000 ft
Nuages fragmentés à une hauteur de 4500 ft
Probabilité 30% :
Temporairement
du 01 à 21 UTC au 02 à 01 UTC
Nuages épars à une hauteur de 2000 ft

TAF: EGWU 011932Z 0121/0215 10008KT 9999 FEW020 BKN045 PROB30 TEMPO 0121/0201 SCT020

Observations et prévisions météorologiques de plus de 4000 aéroports (messages METAR et TAF).

Les stations disponibles sont représentées par des disques jaunes et rouges sur la carte.

Passer la souris dessus pour voir le nom de la station.

Cliquer dessus pour voir les observations et prévisions météorologiques.

Pour changer de carte: cliquez sur les boutons verts avec une croix noire pour zoomer, sur le bouton vert avec un tiret pour effectuer un zoom arrière, ou sur les flèches vertes pour les cartes adjacentes.


METAR-TAF: